This is the latest recevied weather packets stored in our database for station/object YS1AHL-29. If no packets are shown the sender has not sent any weather packets the latest 10 day(s).
| Time | Temp. | Humidity | Pressure | Rain* | Wind** | Luminosity | Snow |
|---|---|---|---|---|---|---|---|
| 1777437475 | 11.67° C | 82% | 1024 hPa | 0 mm | - | - | - |
| 1777437415 | 11.67° C | 82% | 1024 hPa | 0 mm | - | - | - |
| 1777436875 | 11.67° C | 81% | 1023 hPa | 0 mm | - | - | - |
| 1777436815 | 11.67° C | 81% | 1023 hPa | 0 mm | - | - | - |
| 1777436275 | 11.67° C | 81% | 1023 hPa | 0 mm | - | - | - |
| 1777436215 | 11.67° C | 81% | 1023 hPa | 0 mm | - | - | - |
| 1777435675 | 10.56° C | 91% | 1023 hPa | 0 mm | - | - | - |
| 1777435073 | 10.56° C | 89% | 1023 hPa | 0 mm | - | - | - |
| 1777435013 | 10.56° C | 89% | 1023 hPa | 0 mm | - | - | - |
| 1777434473 | 10.56° C | 89% | 1023 hPa | 0 mm | - | - | - |
| 1777434413 | 10.56° C | 89% | 1023 hPa | 0 mm | - | - | - |
| 1777433872 | 10.56° C | 88% | 1023 hPa | 0 mm | - | - | - |
| 1777433812 | 10.56° C | 88% | 1023 hPa | 0 mm | - | - | - |
| 1777433272 | 11.67° C | 85% | 1023 hPa | 0 mm | - | - | - |
| 1777432611 | 11.11° C | 86% | 1023 hPa | 0 mm | - | - | - |
| 1777431470 | 11.67° C | 83% | 1023 hPa | 0 mm | - | - | - |
| 1777430269 | 11.11° C | 90% | 1023 hPa | 0 mm | - | - | - |
| 1777429068 | 11.11° C | 90% | 1022 hPa | 0 mm | - | - | - |
| 1777428467 | 12.22° C | 83% | 1022 hPa | 0 mm | - | - | - |
| 1777428407 | 12.22° C | 83% | 1022 hPa | 0 mm | - | - | - |
| 1777427266 | 12.78° C | 82% | 1023 hPa | 0 mm | - | - | - |
| 1777427206 | 12.78° C | 82% | 1023 hPa | 0 mm | - | - | - |
| 1777426065 | 12.78° C | 83% | 1023 hPa | 0 mm | - | - | - |
| 1777426005 | 12.78° C | 83% | 1023 hPa | 0 mm | - | - | - |
| 1777425464 | 12.78° C | 83% | 1023 hPa | 0 mm | - | - | - |
* Rain latest hour (hover to see other rain measurements)
** Current wind speed in m/s (hover to see current wind gust speed)